Fort Pike — WAA9418 — position and weather

sailwx.info

Track history (hours):
 
Tides and Currents Weather Stations Pressure Air Temp Water Temp Dewpoint Dewpoint Depression Visibility Wind Speed Wind Dir Waves Ship Positions

Fort Pike

Owner: Salisbury Towing Corporation, Chesapeak, VA. More information available from US FCC via Universal Licensing System and Coast Guard Vessel Documentation Center.

Last reported at 2016-May-28 13:26 UTC. Time now 2016-May-28 22:00 UTC.
Position N 38°59' W 076°23'.

Length 18 m; draft 10.5 m.

Type: Tug. MMSI: 366948310.

Date/timePositionNaut miles runAvg speedWind from/ knotsBaromVisibWave heightAir tempDewpointWater temp
2016-May-28 13:26N 38°59' W 076°23'5 5.4
2016-May-28 12:33N 39°03' W 076°21'8 5.8
2016-May-28 11:13N 39°11' W 076°18'7 6.3
2016-May-28 10:06N 39°17' W 076°14'4 7.0
2016-May-28 09:33N 39°20' W 076°11'7 6.7
2016-May-28 08:33N 39°24' W 076°04'5 4.8
2016-May-28 07:33N 39°29' W 076°04'4 4.0
2016-May-28 06:32N 39°33' W 076°04'2 2.0
2016-May-28 05:30N 39°34' W 076°06'0 0.1
2016-May-28 04:33N 39°34' W 076°06'6 5.6
2016-May-28 03:33N 39°29' W 076°05'6 6.1
2016-May-28 02:33N 39°23' W 076°06'23 7.8
2016-May-27 23:33N 39°03' W 076°22'51 2.5
2016-May-27 03:21N 38°13' W 076°06'46 5.1
2016-May-26 18:28N 38°57' W 076°24'8 6.6
2016-May-26 17:17N 39°05' W 076°24'5 6.2
2016-May-26 16:28N 39°10' W 076°25'5 5.9
2016-May-26 15:33N 39°12' W 076°31'5 4.5
2016-May-26 14:32N 39°15' W 076°35'1 1.1
2016-May-26 13:33N 39°15' W 076°36'1 1.1
2016-May-26 12:33N 39°16' W 076°35'2 2.0
2016-May-26 11:27N 39°14' W 076°33'4 5.0
2016-May-26 10:33N 39°12' W 076°29'4 4.1
2016-May-26 09:33N 39°12' W 076°23'4 4.0
2016-May-26 08:33N 39°14' W 076°19'4 4.4
2016-May-26 07:33N 39°17' W 076°15'5 5.2
2016-May-26 06:33N 39°21' W 076°10'5 4.7
2016-May-26 05:33N 39°23' W 076°05'4 3.5
2016-May-26 04:33N 39°26' W 076°02'3 3.2
2016-May-26 03:33N 39°29' W 076°04'3 3.1
2016-May-26 02:33N 39°32' W 076°05'1 1.2
2016-May-26 01:33N 39°33' W 076°05'1 0.7
2016-May-26 00:33N 39°34' W 076°05'6 5.9
2016-May-25 23:34N 39°28' W 076°03'6 5.6
2016-May-25 22:33N 39°23' W 076°06'19 6.2
2016-May-25 19:33N 39°11' W 076°25'8 7.1
2016-May-25 18:28N 39°15' W 076°34'2 1.9
2016-May-25 17:33N 39°15' W 076°36'2 0.5
2016-May-25 13:29N 39°14' W 076°34'2 2.1
2016-May-25 12:24N 39°16' W 076°35'0 0.0
2016-May-25 11:33N 39°16' W 076°35'0 0.1
2016-May-25 10:30N 39°16' W 076°35'3 2.7
2016-May-25 09:33N 39°14' W 076°33'6 5.9
2016-May-25 08:33N 39°11' W 076°26'7 6.4
2016-May-25 07:24N 39°15' W 076°18'6 6.9
2016-May-25 06:33N 39°19' W 076°13'7 6.8
2016-May-25 05:33N 39°23' W 076°06'5 5.3
2016-May-25 04:34N 39°28' W 076°03'5 5.3
2016-May-25 03:33N 39°33' W 076°05'2 1.6
2016-May-25 02:32N 39°34' W 076°06'0 0.0
2016-May-25 01:32N 39°34' W 076°06'4 4.5
2016-May-25 00:33N 39°30' W 076°05'6 5.7
2016-May-24 23:33N 39°25' W 076°03'19 6.0
2016-May-24 20:26N 39°13' W 076°22'5 6.0
2016-May-24 19:33N 39°11' W 076°29'6 6.5
2016-May-24 18:33N 39°15' W 076°36'0 0.3
2016-May-24 17:27N 39°15' W 076°36'4 4.2
2016-May-24 16:33N 39°13' W 076°32'6 6.0
2016-May-24 15:33N 39°10' W 076°25'6 6.0
2016-May-24 14:33N 39°04' W 076°24'6 6.2
2016-May-24 13:33N 38°58' W 076°24'7 6.7
2016-May-24 12:33N 38°51' W 076°26'10 0.2
2016-May-22 09:33N 39°01' W 076°22'14 6.4
2016-May-22 07:18N 39°14' W 076°15'6 7.8
2016-May-22 06:33N 39°19' W 076°12'8 7.7
2016-May-22 05:33N 39°24' W 076°04'5 5.0
2016-May-22 04:33N 39°29' W 076°05'4 4.1
2016-May-22 03:33N 39°33' W 076°05'2 1.8
2016-May-22 02:32N 39°34' W 076°06'0 0.0
2016-May-22 01:32N 39°34' W 076°06'0 0.0
2016-May-22 00:32N 39°34' W 076°06'0 0.0
2016-May-21 23:32N 39°34' W 076°06'0 0.0
2016-May-21 22:29N 39°34' W 076°06'0 0.0
2016-May-21 21:32N 39°34' W 076°06'2 1.8
2016-May-21 20:33N 39°33' W 076°05'6 5.8
2016-May-21 19:33N 39°27' W 076°03'6 5.7
2016-May-21 18:33N 39°23' W 076°07'14 5.9
2016-May-21 16:07N 39°13' W 076°21'4 6.7
2016-May-21 15:31N 39°11' W 076°25'7 6.9
2016-May-21 14:28N 39°15' W 076°34'2 1.9
2016-May-21 13:23N 39°15' W 076°36'3 2.4
2016-May-21 12:20N 39°14' W 076°33'5 6.1
2016-May-21 11:33N 39°11' W 076°28'5 5.5
2016-May-21 10:33N 39°13' W 076°21'7 5.3
2016-May-21 09:18N 39°17' W 076°14'4 5.9
2016-May-21 08:33N 39°20' W 076°11'6 6.4
2016-May-21 07:33N 39°24' W 076°04'5 5.1
2016-May-21 06:33N 39°29' W 076°05'5 4.3
2016-May-21 05:16N 39°34' W 076°06'0 0.1
2016-May-21 04:31N 39°34' W 076°06'6 5.9
2016-May-21 03:34N 39°29' W 076°04'5 5.4
2016-May-21 02:34N 39°23' W 076°06'23 7.2
2016-May-20 23:23N 39°04' W 076°21'7 7.9
2016-May-20 22:33N 38°58' W 076°24'126 7.0
2016-May-20 04:33N 36°52' W 076°20'3 2.9
2016-May-20 03:33N 36°50' W 076°18'1 1.0
2016-May-20 02:33N 36°49' W 076°17'0 0.0
2016-May-20 01:33N 36°49' W 076°17'1 1.2
2016-May-20 00:31N 36°50' W 076°17'0 0.0
2016-May-19 23:33N 36°50' W 076°17'5 5.3
2016-May-19 22:33N 36°45' W 076°18'0 0.1
2016-May-19 21:33N 36°45' W 076°18'3 3.4
2016-May-19 20:33N 36°49' W 076°17'  
Track history (hours):
 
Tides and Currents Weather Stations Pressure Air Temp Water Temp Dewpoint Dewpoint Depression Visibility Wind Speed Wind Dir Waves Ship Positions

Fort Pike

Owner: Salisbury Towing Corporation, Chesapeak, VA. More information available from US FCC via Universal Licensing System and Coast Guard Vessel Documentation Center.

Last reported at 2016-May-28 13:26 UTC. Time now 2016-May-28 22:00 UTC.
Position N 38°59' W 076°23'.

Length 18 m; draft 10.5 m.

Type: Tug. MMSI: 366948310.

Date/timePositionNaut miles runAvg speedWind from/ knotsBaromVisibWave heightAir tempDewpointWater temp
2016-May-28 13:26N 38°59' W 076°23'5 5.4
2016-May-28 12:33N 39°03' W 076°21'8 5.8
2016-May-28 11:13N 39°11' W 076°18'7 6.3
2016-May-28 10:06N 39°17' W 076°14'4 7.0
2016-May-28 09:33N 39°20' W 076°11'7 6.7
2016-May-28 08:33N 39°24' W 076°04'5 4.8
2016-May-28 07:33N 39°29' W 076°04'4 4.0
2016-May-28 06:32N 39°33' W 076°04'2 2.0
2016-May-28 05:30N 39°34' W 076°06'0 0.1
2016-May-28 04:33N 39°34' W 076°06'6 5.6
2016-May-28 03:33N 39°29' W 076°05'6 6.1
2016-May-28 02:33N 39°23' W 076°06'23 7.8
2016-May-27 23:33N 39°03' W 076°22'51 2.5
2016-May-27 03:21N 38°13' W 076°06'46 5.1
2016-May-26 18:28N 38°57' W 076°24'8 6.6
2016-May-26 17:17N 39°05' W 076°24'5 6.2
2016-May-26 16:28N 39°10' W 076°25'5 5.9
2016-May-26 15:33N 39°12' W 076°31'5 4.5
2016-May-26 14:32N 39°15' W 076°35'1 1.1
2016-May-26 13:33N 39°15' W 076°36'1 1.1
2016-May-26 12:33N 39°16' W 076°35'2 2.0
2016-May-26 11:27N 39°14' W 076°33'4 5.0
2016-May-26 10:33N 39°12' W 076°29'4 4.1
2016-May-26 09:33N 39°12' W 076°23'4 4.0
2016-May-26 08:33N 39°14' W 076°19'4 4.4
2016-May-26 07:33N 39°17' W 076°15'5 5.2
2016-May-26 06:33N 39°21' W 076°10'5 4.7
2016-May-26 05:33N 39°23' W 076°05'4 3.5
2016-May-26 04:33N 39°26' W 076°02'3 3.2
2016-May-26 03:33N 39°29' W 076°04'3 3.1
2016-May-26 02:33N 39°32' W 076°05'1 1.2
2016-May-26 01:33N 39°33' W 076°05'1 0.7
2016-May-26 00:33N 39°34' W 076°05'6 5.9
2016-May-25 23:34N 39°28' W 076°03'6 5.6
2016-May-25 22:33N 39°23' W 076°06'19 6.2
2016-May-25 19:33N 39°11' W 076°25'8 7.1
2016-May-25 18:28N 39°15' W 076°34'2 1.9
2016-May-25 17:33N 39°15' W 076°36'2 0.5
2016-May-25 13:29N 39°14' W 076°34'2 2.1
2016-May-25 12:24N 39°16' W 076°35'0 0.0
2016-May-25 11:33N 39°16' W 076°35'0 0.1
2016-May-25 10:30N 39°16' W 076°35'3 2.7
2016-May-25 09:33N 39°14' W 076°33'6 5.9
2016-May-25 08:33N 39°11' W 076°26'7 6.4
2016-May-25 07:24N 39°15' W 076°18'6 6.9
2016-May-25 06:33N 39°19' W 076°13'7 6.8
2016-May-25 05:33N 39°23' W 076°06'5 5.3
2016-May-25 04:34N 39°28' W 076°03'5 5.3
2016-May-25 03:33N 39°33' W 076°05'2 1.6
2016-May-25 02:32N 39°34' W 076°06'0 0.0
2016-May-25 01:32N 39°34' W 076°06'4 4.5
2016-May-25 00:33N 39°30' W 076°05'6 5.7
2016-May-24 23:33N 39°25' W 076°03'19 6.0
2016-May-24 20:26N 39°13' W 076°22'5 6.0
2016-May-24 19:33N 39°11' W 076°29'6 6.5
2016-May-24 18:33N 39°15' W 076°36'0 0.3
2016-May-24 17:27N 39°15' W 076°36'4 4.2
2016-May-24 16:33N 39°13' W 076°32'6 6.0
2016-May-24 15:33N 39°10' W 076°25'6 6.0
2016-May-24 14:33N 39°04' W 076°24'6 6.2
2016-May-24 13:33N 38°58' W 076°24'7 6.7
2016-May-24 12:33N 38°51' W 076°26'10 0.2
2016-May-22 09:33N 39°01' W 076°22'14 6.4
2016-May-22 07:18N 39°14' W 076°15'6 7.8
2016-May-22 06:33N 39°19' W 076°12'8 7.7
2016-May-22 05:33N 39°24' W 076°04'5 5.0
2016-May-22 04:33N 39°29' W 076°05'4 4.1
2016-May-22 03:33N 39°33' W 076°05'2 1.8
2016-May-22 02:32N 39°34' W 076°06'0 0.0
2016-May-22 01:32N 39°34' W 076°06'0 0.0
2016-May-22 00:32N 39°34' W 076°06'0 0.0
2016-May-21 23:32N 39°34' W 076°06'0 0.0
2016-May-21 22:29N 39°34' W 076°06'0 0.0
2016-May-21 21:32N 39°34' W 076°06'2 1.8
2016-May-21 20:33N 39°33' W 076°05'6 5.8
2016-May-21 19:33N 39°27' W 076°03'6 5.7
2016-May-21 18:33N 39°23' W 076°07'14 5.9
2016-May-21 16:07N 39°13' W 076°21'4 6.7
2016-May-21 15:31N 39°11' W 076°25'7 6.9
2016-May-21 14:28N 39°15' W 076°34'2 1.9
2016-May-21 13:23N 39°15' W 076°36'3 2.4
2016-May-21 12:20N 39°14' W 076°33'5 6.1
2016-May-21 11:33N 39°11' W 076°28'5 5.5
2016-May-21 10:33N 39°13' W 076°21'7 5.3
2016-May-21 09:18N 39°17' W 076°14'4 5.9
2016-May-21 08:33N 39°20' W 076°11'6 6.4
2016-May-21 07:33N 39°24' W 076°04'5 5.1
2016-May-21 06:33N 39°29' W 076°05'5 4.3
2016-May-21 05:16N 39°34' W 076°06'0 0.1
2016-May-21 04:31N 39°34' W 076°06'6 5.9
2016-May-21 03:34N 39°29' W 076°04'5 5.4
2016-May-21 02:34N 39°23' W 076°06'23 7.2
2016-May-20 23:23N 39°04' W 076°21'7 7.9
2016-May-20 22:33N 38°58' W 076°24'126 7.0
2016-May-20 04:33N 36°52' W 076°20'3 2.9
2016-May-20 03:33N 36°50' W 076°18'1 1.0
2016-May-20 02:33N 36°49' W 076°17'0 0.0
2016-May-20 01:33N 36°49' W 076°17'1 1.2
2016-May-20 00:31N 36°50' W 076°17'0 0.0
2016-May-19 23:33N 36°50' W 076°17'5 5.3
2016-May-19 22:33N 36°45' W 076°18'0 0.1
2016-May-19 21:33N 36°45' W 076°18'3 3.4
2016-May-19 20:33N 36°49' W 076°17'  

Dump ship's entire track history